Data for 09/20/2006

Time Sea-Level Adjusted Pressure Absolute Pressure Temperature Relative Humidity Dew Point   
(mb) (inHg) (mb) (inHg) (C) (F) (%) (C) (F)
00:05 1014 29.94 843 24.89 12.3 54.1 74 7.9 46.2
00:10 1014 29.94 843 24.89 12.3 54.2 74 7.8 46.1
00:15 1014 29.94 843 24.89 12.4 54.2 74 7.8 46
00:20 1014 29.94 843 24.89 12.4 54.4 73 7.7 45.9
00:25 1014 29.94 843 24.89 12.4 54.3 74 7.9 46.2
00:30 1014 29.94 843 24.89 12.3 54.1 74 7.9 46.3
00:35 1014 29.94 843 24.89 12.2 54 74 7.9 46.2
00:40 1014 29.94 843 24.89 12.2 54 73 7.7 45.8
00:45 1014 29.94 843 24.89 12.3 54.1 74 7.8 46
00:50 1014 29.94 843 24.89 12.3 54.1 74 7.8 46
00:55 1014 29.94 843 24.89 12.2 54 74 7.7 45.9
01:00 1014 29.94 843 24.89 12.2 53.9 75 7.9 46.1
01:05 1014 29.94 843 24.89 12.1 53.8 75 7.8 46
01:10 1014 29.94 843 24.89 12.1 53.7 75 7.8 46
01:15 1013 29.91 843 24.89 12 53.6 75 7.8 46
01:20 1013 29.91 843 24.89 12 53.6 75 7.7 45.8
01:25 1013 29.91 843 24.89 12 53.5 75 7.7 45.8
01:30 1014 29.94 843 24.89 12 53.6 74 7.5 45.5
01:35 1013 29.91 843 24.89 12.1 53.7 74 7.5 45.5
01:40 1013 29.91 843 24.89 12.1 53.7 74 7.6 45.7
01:45 1014 29.94 843 24.89 12 53.6 73 7.5 45.4
01:50 1014 29.94 843 24.89 12 53.6 73 7.4 45.4
01:55 1013 29.91 843 24.89 12 53.6 72 7.2 45
02:00 1013 29.91 843 24.89 12.1 53.8 71 7.1 44.8
02:05 1013 29.91 843 24.89 12.2 54 70 7 44.6
02:10 1013 29.91 842 24.86 12.2 53.9 71 7.1 44.8
02:15 1013 29.91 843 24.89 12.1 53.7 72 7.1 44.9
02:20 1013 29.91 843 24.89 12 53.6 72 7.2 44.9
02:25 1013 29.91 843 24.89 11.8 53.2 73 7.2 45
02:30 1013 29.91 842 24.86 11.7 53.1 73 7.1 44.8
02:35 1013 29.91 843 24.89 11.7 53.1 73 7 44.6
02:40 1013 29.91 842 24.86 11.7 53 73 7 44.5
02:45 1013 29.91 842 24.86 11.6 52.8 72 6.8 44.2
02:50 1013 29.91 842 24.86 11.6 52.8 72 6.7 44
02:55 1013 29.91 842 24.86 11.5 52.7 72 6.7 44
03:00 1013 29.91 842 24.86 11.5 52.7 72 6.6 43.9
03:05 1013 29.91 842 24.86 11.4 52.6 72 6.6 43.9
03:10 1013 29.91 842 24.86 11.4 52.5 72 6.5 43.7
03:15 1013 29.91 843 24.89 11.4 52.4 72 6.5 43.7
03:20 1014 29.94 843 24.89 11.3 52.4 72 6.5 43.7
03:25 1014 29.94 843 24.89 11.3 52.4 72 6.5 43.7
03:30 1014 29.94 843 24.89 11.3 52.3 71 6.3 43.3
03:35 1014 29.94 843 24.89 11.3 52.3 73 6.6 43.9
03:40 1014 29.94 843 24.89 11.1 52.1 73 6.4 43.6
03:45 1014 29.94 843 24.89 11.1 51.9 73 6.5 43.8
03:50 1014 29.94 843 24.89 10.9 51.7 74 6.6 43.8
03:55 1014 29.94 843 24.89 10.7 51.3 75 6.5 43.8
04:00 1014 29.94 843 24.89 10.7 51.3 75 6.6 43.8
04:05 1014 29.94 843 24.89 10.6 51.1 76 6.5 43.7
04:10 1014 29.94 843 24.89 10.6 51.1 76 6.5 43.7
04:15 1014 29.94 843 24.89 10.7 51.2 75 6.4 43.6
04:20 1014 29.94 843 24.89 10.8 51.4 75 6.6 43.8
04:25 1014 29.94 844 24.92 10.7 51.2 76 6.6 43.8
04:30 1014 29.94 844 24.92 10.7 51.3 75 6.5 43.7
04:35 1014 29.94 844 24.92 10.8 51.4 75 6.6 43.8
04:40 1014 29.94 844 24.92 10.8 51.5 75 6.6 43.9
04:45 1015 29.97 844 24.92 10.7 51.3 75 6.5 43.8
04:50 1015 29.97 844 24.92 10.7 51.2 75 6.5 43.7
04:55 1015 29.97 844 24.92 10.6 51 76 6.5 43.7
05:00 1015 29.97 844 24.92 10.6 51 77 6.7 44
05:05 1015 29.97 844 24.92 10.4 50.8 77 6.6 43.8
05:10 1015 29.97 844 24.92 10.2 50.3 78 6.5 43.7
05:15 1015 29.97 844 24.92 10.2 50.3 77 6.4 43.4
05:20 1015 29.97 844 24.92 10.2 50.3 78 6.5 43.7
05:25 1015 29.97 844 24.92 10.1 50.2 79 6.6 43.8
05:30 1015 29.97 844 24.92 10 50 79 6.6 43.8
05:35 1015 29.97 844 24.92 9.8 49.7 80 6.6 43.8
05:40 1015 29.97 844 24.92 9.8 49.6 80 6.5 43.7
05:45 1015 29.97 844 24.92 9.8 49.7 80 6.6 43.9
05:50 1015 29.97 844 24.92 9.7 49.4 81 6.5 43.8
05:55 1015 29.97 844 24.92 9.7 49.4 80 6.3 43.4
06:00 1015 29.97 844 24.92 9.9 49.7 79 6.4 43.5
06:05 1015 29.97 844 24.92 9.9 49.8 80 6.6 43.9
06:10 1015 29.97 844 24.92 9.7 49.5 81 6.7 44
06:15 1015 29.97 844 24.92 9.3 48.7 82 6.3 43.3
06:20 1015 29.97 844 24.92 9.1 48.4 82 6.2 43.2
06:25 1015 29.97 844 24.92 9 48.2 82 6.2 43.1
06:30 1015 29.97 844 24.92 9 48.2 82 6.1 43
06:35 1015 29.97 844 24.92 8.9 48 83 6.1 43
06:40 1015 29.97 844 24.92 8.9 48 82 6 42.8
06:45 1015 29.97 844 24.92 9 48.1 82 6.1 43
06:50 1015 29.97 844 24.92 8.9 48 83 6.1 43
06:55 1015 29.97 844 24.92 8.7 47.7 84 6.1 43
07:00 1015 29.97 844 24.92 8.6 47.4 84 6.1 42.9
07:05 1015 29.97 844 24.92 8.7 47.7 84 6.2 43.1
07:10 1015 29.97 844 24.92 8.7 47.7 84 6.2 43.1
07:15 1015 29.97 844 24.92 8.8 47.8 84 6.2 43.1
07:20 1015 29.97 844 24.92 9 48.2 83 6.3 43.3
07:25 1015 29.97 845 24.95 9.2 48.6 82 6.4 43.5
07:30 1015 29.97 845 24.95 9.3 48.7 82 6.5 43.6
07:35 1015 29.97 845 24.95 9.4 48.8 82 6.5 43.7
07:40 1015 29.97 845 24.95 9.3 48.8 83 6.5 43.7
07:45 1015 29.97 845 24.95 9.4 48.9 82 6.5 43.8
07:50 1015 29.97 845 24.95 9.3 48.8 83 6.6 43.9
07:55 1015 29.97 845 24.95 9.4 48.9 83 6.6 43.9
08:00 1015 29.97 845 24.95 9.5 49.1 83 6.8 44.2
08:05 1015 29.97 845 24.95 9.3 48.7 84 6.8 44.2
08:10 1016 30 845 24.95 9.1 48.3 85 6.7 44
08:15 1016 30 845 24.95 9.1 48.3 86 6.8 44.2
08:20 1016 30 845 24.95 9 48.2 86 6.8 44.2
08:25 1016 30 845 24.95 8.9 48.1 87 6.9 44.4
08:30 1016 30 845 24.95 9 48.1 87 6.9 44.5
08:35 1015 29.97 845 24.95 9 48.3 88 7.2 44.9
08:40 1015 29.97 845 24.95 9.1 48.3 87 7 44.7
08:45 1016 30 845 24.95 9.1 48.4 88 7.3 45.2
08:50 1016 30 845 24.95 9.1 48.5 89 7.4 45.3
08:55 1016 30 845 24.95 9.2 48.6 87 7.3 45.1
09:00 1016 30 845 24.95 9 48.2 90 7.4 45.4
09:05 1016 30 845 24.95 9.1 48.5 89 7.4 45.2
09:10 1016 30 845 24.95 9 48.2 90 7.4 45.3
09:15 1015 29.97 845 24.95 8.9 48 91 7.5 45.4
09:20 1015 29.97 845 24.95 9 48.2 91 7.6 45.7
09:25 1015 29.97 845 24.95 9.1 48.4 90 7.6 45.6
09:30 1015 29.97 845 24.95 9 48.2 90 7.5 45.6
09:35 1015 29.97 845 24.95 8.9 48.1 90 7.4 45.3
09:40 1015 29.97 845 24.95 8.8 47.9 90 7.4 45.2
09:45 1015 29.97 845 24.95 8.9 48.1 89 7.3 45.1
09:50 1015 29.97 845 24.95 8.8 47.8 91 7.4 45.3
09:55 1016 30 845 24.95 8.8 47.9 91 7.4 45.4
10:00 1016 30 845 24.95 8.9 48.1 91 7.5 45.5
10:05 1016 30 845 24.95 8.9 48.1 91 7.5 45.4
10:10 1016 30 845 24.95 8.7 47.7 92 7.4 45.4
10:15 1016 30 845 24.95 8.6 47.4 92 7.3 45.2
10:20 1016 30 845 24.95 8.7 47.7 92 7.5 45.5
10:25 1016 30 845 24.95 8.9 47.9 92 7.6 45.6
10:30 1016 30 845 24.95 8.9 48.1 91 7.5 45.6
10:35 1016 30 845 24.95 8.8 47.8 91 7.5 45.4
10:40 1016 30 845 24.95 8.8 47.9 91 7.5 45.4
10:45 1016 30 845 24.95 8.8 47.9 91 7.5 45.5
10:50 1016 30 845 24.95 8.8 47.8 91 7.5 45.4
10:55 1016 30 845 24.95 8.9 47.9 92 7.6 45.6
11:00 1016 30 845 24.95 9 48.2 91 7.6 45.7
11:05 1016 30 845 24.95 8.9 48 91 7.6 45.6
11:10 1016 30 845 24.95 8.8 47.9 92 7.6 45.7
11:15 1016 30 845 24.95 9 48.3 91 7.6 45.7
11:20 1016 30 845 24.95 9.2 48.6 90 7.7 45.9
11:25 1016 30 845 24.95 9.3 48.7 89 7.6 45.7
11:30 1016 30 845 24.95 9.1 48.4 90 7.6 45.7
11:35 1015 29.97 845 24.95 9.1 48.5 90 7.6 45.6
11:40 1015 29.97 845 24.95 9.2 48.6 90 7.6 45.7
11:45 1015 29.97 845 24.95 9.1 48.4 90 7.5 45.5
11:50 1015 29.97 845 24.95 9.1 48.3 90 7.4 45.4
11:55 1015 29.97 845 24.95 9.1 48.3 90 7.5 45.5
12:00 1015 29.97 845 24.95 9.4 49 89 7.8 46
12:05 1015 29.97 845 24.95 9.6 49.2 89 7.8 46
12:10 1015 29.97 845 24.95 9.6 49.2 89 7.8 46.1
12:15 1015 29.97 845 24.95 9.7 49.4 88 7.8 46
12:20 1015 29.97 845 24.95 9.7 49.4 90 8 46.5
12:25 1015 29.97 845 24.95 9.8 49.6 88 7.9 46.1
12:30 1015 29.97 845 24.95 9.8 49.6 88 7.9 46.2
12:35 1015 29.97 845 24.95 9.8 49.6 88 7.9 46.1
12:40 1015 29.97 845 24.95 9.7 49.5 88 7.8 46
12:45 1015 29.97 845 24.95 9.6 49.3 87 7.6 45.7
12:50 1015 29.97 845 24.95 9.6 49.2 89 7.8 46.1
12:55 1015 29.97 845 24.95 9.5 49.1 88 7.6 45.7
13:00 1015 29.97 845 24.95 9.5 49.1 88 7.6 45.7
13:05 1015 29.97 845 24.95 9.5 49 88 7.6 45.7
13:10 1015 29.97 845 24.95 9.5 49.1 89 7.8 46
13:15 1015 29.97 845 24.95 9.5 49.2 90 7.9 46.2
13:20 1015 29.97 845 24.95 9.7 49.4 90 8.1 46.6
13:25 1015 29.97 845 24.95 9.5 49 90 7.9 46.2
13:30 1015 29.97 845 24.95 9.2 48.6 91 7.9 46.2
13:35 1015 29.97 844 24.92 9.2 48.5 91 7.8 46.1
13:40 1015 29.97 845 24.95 9.2 48.5 92 7.9 46.2
13:45 1015 29.97 844 24.92 9.1 48.5 92 7.9 46.2
13:50 1015 29.97 845 24.95 9.2 48.5 91 7.8 46.1
13:55 1015 29.97 845 24.95 9.1 48.4 91 7.8 46
14:00 1015 29.97 845 24.95 9 48.3 92 7.8 46
14:05 1015 29.97 845 24.95 9 48.1 93 7.8 46.1
14:10 1015 29.97 845 24.95 9 48.1 93 7.8 46.1
14:15 1015 29.97 845 24.95 9 48.2 93 7.9 46.2
14:20 1015 29.97 845 24.95 8.9 48 94 7.9 46.2
14:25 1015 29.97 845 24.95 8.9 48.1 94 8 46.4
14:30 1015 29.97 844 24.92 8.9 48 94 7.9 46.3
14:35 1015 29.97 844 24.92 8.8 47.8 94 7.8 46.1
14:40 1015 29.97 844 24.92 8.8 47.8 94 7.9 46.2
14:45 1015 29.97 844 24.92 8.8 47.8 95 8 46.3
14:50 1015 29.97 844 24.92 8.8 47.8 95 8.1 46.5
14:55 1015 29.97 844 24.92 8.8 47.8 94 7.9 46.3
15:00 1015 29.97 844 24.92 8.8 47.8 94 7.8 46.1
15:05 1015 29.97 844 24.92 8.7 47.7 94 7.8 46.1
15:10 1015 29.97 844 24.92 8.7 47.7 93 7.6 45.7
15:15 1015 29.97 844 24.92 8.8 47.8 92 7.6 45.7
15:20 1015 29.97 844 24.92 8.9 48.1 91 7.6 45.7
15:25 1015 29.97 844 24.92 9.1 48.4 90 7.5 45.5
15:30 1015 29.97 844 24.92 9.3 48.7 89 7.6 45.6
15:35 1015 29.97 844 24.92 9.4 48.9 88 7.4 45.4
15:40 1015 29.97 844 24.92 9.5 49 87 7.4 45.3
15:45 1015 29.97 844 24.92 9.5 49 87 7.5 45.5
15:50 1015 29.97 844 24.92 9.6 49.2 87 7.5 45.6
15:55 1015 29.97 844 24.92 9.7 49.4 86 7.5 45.5
16:00 1015 29.97 844 24.92 9.7 49.4 87 7.6 45.8
16:05 1015 29.97 844 24.92 9.7 49.5 85 7.4 45.3
16:10 1015 29.97 844 24.92 9.6 49.3 87 7.6 45.7
16:15 1015 29.97 844 24.92 9.5 49.1 88 7.7 45.8
16:20 1015 29.97 844 24.92 9.3 48.7 90 7.7 45.9
16:25 1014 29.94 844 24.92 9.1 48.5 89 7.5 45.5
16:30 1014 29.94 844 24.92 9.1 48.4 89 7.4 45.4
16:35 1014 29.94 844 24.92 9.1 48.4 89 7.4 45.3
16:40 1014 29.94 843 24.89 8.9 48 92 7.6 45.7
16:45 1014 29.94 843 24.89 8.8 47.8 92 7.5 45.5
16:50 1014 29.94 843 24.89 8.6 47.5 93 7.5 45.5
16:55 1014 29.94 843 24.89 8.7 47.7 92 7.5 45.5
17:00 1014 29.94 843 24.89 8.8 47.8 92 7.6 45.7
17:05 1014 29.94 843 24.89 9 48.3 92 7.8 46
17:10 1014 29.94 843 24.89 9.1 48.3 92 7.8 46
17:15 1014 29.94 843 24.89 8.9 48 91 7.5 45.4
17:20 1014 29.94 843 24.89 8.9 48 91 7.5 45.5
17:25 1014 29.94 843 24.89 8.8 47.9 92 7.6 45.7
17:30 1014 29.94 843 24.89 8.9 48.1 90 7.4 45.3
17:35 1014 29.94 843 24.89 8.9 48.1 90 7.5 45.4
17:40 1014 29.94 843 24.89 9 48.3 91 7.7 45.8
17:45 1014 29.94 843 24.89 9.2 48.5 91 7.8 46
17:50 1014 29.94 843 24.89 9.2 48.5 91 7.7 45.9
17:55 1014 29.94 843 24.89 9.1 48.3 91 7.7 45.8
18:00 1014 29.94 843 24.89 9.1 48.3 90 7.6 45.7
18:05 1014 29.94 843 24.89 9.1 48.5 91 7.8 46.1
18:10 1014 29.94 843 24.89 9.3 48.7 92 8.1 46.6
18:15 1014 29.94 843 24.89 9.2 48.6 93 8.1 46.6
18:20 1014 29.94 843 24.89 9.2 48.5 93 8 46.5
18:25 1014 29.94 843 24.89 9 48.2 93 8 46.4
18:30 1014 29.94 843 24.89 9.1 48.3 94 8.1 46.6
18:35 1014 29.94 843 24.89 9 48.3 94 8.1 46.6
18:40 1014 29.94 843 24.89 9 48.2 94 8.1 46.6
18:45 1014 29.94 843 24.89 8.9 48.1 94 8 46.4
18:50 1014 29.94 843 24.89 9 48.1 94 8.1 46.5
18:55 1014 29.94 843 24.89 8.8 47.9 94 7.9 46.2
19:00 1014 29.94 843 24.89 8.8 47.8 93 7.8 46
19:05 1014 29.94 843 24.89 8.8 47.8 92 7.6 45.7
19:10 1014 29.94 843 24.89 8.8 47.8 91 7.4 45.4
19:15 1014 29.94 843 24.89 8.8 47.8 93 7.7 45.9
19:20 1014 29.94 843 24.89 8.9 48 93 7.8 46
19:25 1014 29.94 843 24.89 8.8 47.8 93 7.7 45.8
19:30 1014 29.94 843 24.89 8.7 47.6 94 7.8 46
19:35 1014 29.94 843 24.89 8.6 47.5 95 7.9 46.2
19:40 1014 29.94 843 24.89 8.5 47.2 95 7.7 45.8
19:45 1014 29.94 843 24.89 8.5 47.4 95 7.7 45.9
19:50 1014 29.94 843 24.89 8.5 47.3 95 7.7 45.9
19:55 1014 29.94 843 24.89 8.4 47.2 95 7.6 45.7
20:00 1014 29.94 843 24.89 8.4 47.1 95 7.6 45.7
20:05 1014 29.94 843 24.89 8.5 47.2 95 7.7 45.9
20:10 1013 29.91 843 24.89 8.3 47 95 7.6 45.7
20:15 1013 29.91 843 24.89 8.3 46.9 96 7.7 45.8
20:20 1013 29.91 842 24.86 8.3 46.9 96 7.7 45.9
20:25 1013 29.91 842 24.86 8.3 46.9 96 7.7 45.8
20:30 1013 29.91 842 24.86 8.2 46.8 96 7.6 45.7
20:35 1013 29.91 842 24.86 8.2 46.7 96 7.6 45.6
20:40 1013 29.91 842 24.86 8.1 46.6 96 7.5 45.5
20:45 1013 29.91 842 24.86 8.1 46.5 96 7.4 45.4
20:50 1013 29.91 842 24.86 8.1 46.5 95 7.3 45.2
20:55 1013 29.91 842 24.86 8.1 46.5 95 7.4 45.3
21:00 1013 29.91 842 24.86 8 46.5 95 7.4 45.2
21:05 1013 29.91 842 24.86 8 46.5 95 7.3 45.2
21:10 1013 29.91 842 24.86 8.1 46.5 95 7.4 45.3
21:15 1013 29.91 842 24.86 8 46.4 96 7.4 45.2
21:20 1013 29.91 842 24.86 8.1 46.5 96 7.4 45.4
21:25 1013 29.91 842 24.86 8.1 46.6 95 7.4 45.3
21:30 1013 29.91 842 24.86 8.1 46.6 96 7.5 45.4
21:35 1013 29.91 842 24.86 8 46.5 96 7.4 45.4
21:40 1013 29.91 842 24.86 8.1 46.5 96 7.5 45.4
21:45 1013 29.91 842 24.86 8.2 46.8 95 7.5 45.5
21:50 1013 29.91 842 24.86 8.6 47.4 94 7.6 45.7
21:55 1013 29.91 842 24.86 8.7 47.7 92 7.5 45.6
22:00 1013 29.91 842 24.86 8.8 47.8 92 7.5 45.6
22:05 1013 29.91 842 24.86 8.9 47.9 93 7.7 45.9
22:10 1012 29.88 842 24.86 8.8 47.9 90 7.3 45.1
22:15 1012 29.88 842 24.86 9 48.3 88 7.2 45
22:20 1012 29.88 842 24.86 9.1 48.4 89 7.5 45.4
22:25 1012 29.88 841 24.83 9 48.2 87 7 44.6
22:30 1012 29.88 841 24.83 9 48.2 88 7.1 44.7
22:35 1012 29.88 841 24.83 9 48.2 88 7 44.7
22:40 1012 29.88 841 24.83 8.9 48.1 88 7.1 44.8
22:45 1012 29.88 841 24.83 8.8 47.9 89 7.1 44.8
22:50 1012 29.88 841 24.83 8.7 47.7 90 7.2 44.9
22:55 1012 29.88 841 24.83 8.7 47.6 88 6.8 44.2
23:00 1012 29.88 841 24.83 8.3 47 89 6.6 44
23:05 1012 29.88 841 24.83 8 46.4 90 6.4 43.5
23:10 1012 29.88 841 24.83 7.9 46.3 90 6.5 43.7
23:15 1012 29.88 841 24.83 7.9 46.2 90 6.4 43.6
23:20 1012 29.88 841 24.83 7.8 46 91 6.5 43.6
23:25 1012 29.88 841 24.83 7.6 45.7 91 6.2 43.2
23:30 1012 29.88 841 24.83 7.6 45.7 91 6.2 43.2
23:35 1012 29.88 841 24.83 7.8 46 90 6.2 43.2
23:40 1012 29.88 841 24.83 7.8 46 88 6 42.8
23:45 1012 29.88 841 24.83 7.9 46.2 89 6.3 43.3
23:50 1012 29.88 841 24.83 7.9 46.2 88 6.1 43
23:55 1012 29.88 841 24.83 7.9 46.3 90 6.4 43.5
24:00 1012 29.88 841 24.83 8 46.3 90 6.4 43.4